Time;durP1;ratioP1;P1;durP2;ratioP2;P2;SDS_P1;SDS_P2;PMS_P1;PMS_P2;Temp;Humidity;BMP_temperature;BMP_pressure;BME280_temperature;BME280_humidity;BME280_pressure;Samples;Min_cycle;Max_cycle;Signal;HPM_P1;HPM_P2
2023/01/09 06:03:39;;;;;;;1.08;0.30;;;6.10;99.90;;;;;;4846262;29;20299;-73
2023/01/09 06:06:05;;;;;;;1.15;0.22;;;6.10;99.90;;;;;;4851841;29;20037;-71
2023/01/09 06:08:31;;;;;;;2.53;0.40;;;6.10;99.90;;;;;;4854811;29;20034;-77
2023/01/09 06:10:57;;;;;;;1.80;0.40;;;6.00;99.90;;;;;;4852334;29;20030;-79
2023/01/09 06:13:23;;;;;;;2.58;0.20;;;6.10;99.90;;;;;;4851849;29;20147;-75
2023/01/09 06:15:48;;;;;;;2.45;0.40;;;6.00;99.90;;;;;;4851623;29;20072;-75
2023/01/09 06:18:14;;;;;;;3.90;0.40;;;6.10;99.90;;;;;;4852098;29;20036;-76
2023/01/09 06:20:40;;;;;;;1.25;0.22;;;6.00;99.90;;;;;;4852588;29;20030;-77
2023/01/09 06:23:06;;;;;;;2.60;0.63;;;5.90;99.90;;;;;;4852134;29;20051;-73
2023/01/09 06:25:32;;;;;;;1.00;0.30;;;6.00;99.90;;;;;;4852323;29;20041;-71
2023/01/09 06:27:57;;;;;;;3.88;0.40;;;6.00;99.90;;;;;;4852761;29;20037;-71
2023/01/09 06:30:23;;;;;;;1.08;0.40;;;6.00;99.90;;;;;;4851726;29;20410;-72
2023/01/09 06:32:49;;;;;;;3.28;0.82;;;6.00;99.90;;;;;;4852488;29;20051;-72
2023/01/09 06:35:19;;;;;;;2.45;0.30;;;6.10;99.90;;;;;;4851182;29;20101;-72
2023/01/09 06:37:48;;;;;;;1.50;0.40;;;6.10;99.90;;;;;;4852410;29;20098;-71
2023/01/09 06:40:15;;;;;;;0.65;0.20;;;6.00;99.90;;;;;;4851335;29;20050;-72
2023/01/09 06:42:45;;;;;;;0.90;0.20;;;5.90;99.90;;;;;;4851878;29;20034;-73
2023/01/09 06:45:12;;;;;;;1.23;0.40;;;5.80;99.90;;;;;;4851267;29;20275;-71
2023/01/09 06:47:38;;;;;;;1.20;0.40;;;5.70;99.90;;;;;;4852172;29;20097;-72
2023/01/09 06:50:05;;;;;;;1.05;0.30;;;5.70;99.90;;;;;;4852142;29;20065;-71
2023/01/09 06:52:31;;;;;;;2.85;0.50;;;5.60;99.90;;;;;;4851785;29;20049;-73
2023/01/09 06:54:56;;;;;;;1.95;0.20;;;5.60;99.90;;;;;;4851567;29;20100;-71
2023/01/09 06:57:22;;;;;;;1.90;0.30;;;5.60;99.90;;;;;;4850122;29;20029;-72
2023/01/09 06:59:48;;;;;;;1.85;0.60;;;5.50;99.90;;;;;;4851978;29;20038;-71
2023/01/09 07:02:18;;;;;;;2.20;0.43;;;5.50;99.90;;;;;;4850953;29;20072;-72
2023/01/09 07:04:44;;;;;;;1.48;0.20;;;5.50;99.90;;;;;;4855572;29;20120;-71
2023/01/09 07:07:10;;;;;;;3.03;0.40;;;5.50;99.90;;;;;;4851093;29;20053;-73
2023/01/09 07:09:36;;;;;;;4.93;0.77;;;5.60;99.90;;;;;;4866051;29;20037;-72
2023/01/09 07:12:01;;;;;;;1.55;0.30;;;5.60;99.90;;;;;;4870162;29;20037;-72
2023/01/09 07:14:33;;;;;;;1.95;0.50;;;5.70;99.90;;;;;;4850973;29;20034;-72
2023/01/09 07:16:58;;;;;;;5.60;0.40;;;5.70;99.90;;;;;;4851106;29;20334;-73
2023/01/09 07:19:24;;;;;;;3.53;0.50;;;5.80;99.90;;;;;;4850893;29;20081;-72
2023/01/09 07:21:50;;;;;;;4.30;0.50;;;5.80;99.90;;;;;;4850832;29;20057;-71
2023/01/09 07:24:15;;;;;;;3.42;0.55;;;5.80;99.90;;;;;;4850742;29;20034;-72
2023/01/09 07:26:41;;;;;;;3.67;0.80;;;5.70;99.90;;;;;;4850930;29;20044;-72
2023/01/09 07:29:07;;;;;;;3.47;0.70;;;5.60;99.90;;;;;;4850574;29;20247;-74
2023/01/09 07:31:33;;;;;;;2.45;0.50;;;5.50;99.90;;;;;;4851203;29;20086;-72
2023/01/09 07:33:58;;;;;;;5.13;0.60;;;5.60;99.90;;;;;;4851158;29;20049;-71
2023/01/09 07:36:24;;;;;;;1.60;0.45;;;5.80;99.90;;;;;;4850271;29;20315;-73
2023/01/09 07:38:50;;;;;;;5.65;1.00;;;5.80;99.90;;;;;;4851058;29;20079;-71
2023/01/09 07:41:15;;;;;;;2.42;0.45;;;5.90;99.90;;;;;;4850532;29;20649;-72
2023/01/09 07:43:41;;;;;;;3.55;0.98;;;5.90;99.90;;;;;;4851055;29;20065;-72
2023/01/09 07:46:07;;;;;;;5.57;0.40;;;6.00;99.90;;;;;;4851434;29;20034;-72
2023/01/09 07:48:33;;;;;;;3.63;0.95;;;6.00;99.90;;;;;;4851626;29;20371;-72
2023/01/09 07:50:59;;;;;;;1.38;0.40;;;6.00;99.90;;;;;;4850462;29;20025;-71
2023/01/09 07:53:25;;;;;;;4.00;0.50;;;5.80;99.90;;;;;;4849911;29;20022;-72
2023/01/09 07:55:51;;;;;;;3.22;0.52;;;5.90;99.90;;;;;;4850216;29;20333;-70
2023/01/09 07:58:17;;;;;;;3.20;0.40;;;5.80;99.90;;;;;;4849115;29;20227;-72
2023/01/09 08:00:42;;;;;;;1.33;0.40;;;5.80;99.90;;;;;;4851231;29;20033;-72
2023/01/09 08:03:08;;;;;;;3.90;0.50;;;5.80;99.90;;;;;;4850456;29;20048;-71
2023/01/09 08:05:34;;;;;;;4.43;0.40;;;5.80;99.90;;;;;;4850957;29;20213;-72
2023/01/09 08:08:00;;;;;;;1.48;0.38;;;5.80;99.90;;;;;;4851147;29;20045;-72
2023/01/09 08:10:26;;;;;;;3.58;0.60;;;5.90;99.90;;;;;;4850254;29;20046;-72
2023/01/09 08:12:52;;;;;;;2.10;0.60;;;5.90;99.90;;;;;;4850822;29;20054;-70
2023/01/09 08:15:18;;;;;;;1.65;0.40;;;6.00;99.90;;;;;;4850297;29;20122;-70
2023/01/09 08:17:45;;;;;;;3.97;0.90;;;6.00;99.90;;;;;;4850890;29;20042;-71
2023/01/09 08:20:13;;;;;;;4.57;0.65;;;6.10;99.90;;;;;;4850437;29;20030;-71
2023/01/09 08:22:43;;;;;;;5.28;1.65;;;6.30;99.90;;;;;;4850979;29;20026;-72
2023/01/09 08:25:10;;;;;;;2.85;0.68;;;6.40;99.90;;;;;;4851009;29;20334;-72
2023/01/09 08:27:35;;;;;;;5.32;0.88;;;6.60;99.90;;;;;;4851552;29;20037;-72
2023/01/09 08:30:01;;;;;;;5.03;0.70;;;6.70;99.90;;;;;;4850839;29;20220;-73
2023/01/09 08:32:27;;;;;;;7.90;1.17;;;6.70;99.90;;;;;;4850087;29;20037;-71
2023/01/09 08:34:53;;;;;;;5.55;0.85;;;6.80;99.90;;;;;;4850570;29;20026;-72
2023/01/09 08:37:19;;;;;;;4.50;0.52;;;6.70;99.90;;;;;;4853132;29;20054;-73
2023/01/09 08:39:44;;;;;;;3.17;0.77;;;6.70;99.90;;;;;;4854463;29;20038;-71
2023/01/09 08:47:39;;;;;;;3.80;1.25;;;6.70;99.90;;;;;;4854375;29;20038;-71
2023/01/09 08:50:05;;;;;;;4.00;0.82;;;6.70;99.90;;;;;;4854150;29;20082;-72
2023/01/09 08:52:31;;;;;;;4.43;1.05;;;6.70;99.90;;;;;;4853434;29;20101;-71
2023/01/09 08:54:57;;;;;;;3.42;0.95;;;6.80;99.90;;;;;;4853944;29;20053;-73
2023/01/09 08:57:23;;;;;;;3.28;0.80;;;6.80;99.90;;;;;;4850178;29;20224;-72
2023/01/09 08:59:49;;;;;;;2.50;0.30;;;6.90;99.90;;;;;;4853719;29;20045;-71
2023/01/09 09:02:15;;;;;;;4.43;0.50;;;6.90;99.90;;;;;;4853394;29;20132;-72
2023/01/09 09:04:40;;;;;;;2.60;0.88;;;7.00;99.90;;;;;;4853890;29;20058;-71
2023/01/09 09:07:06;;;;;;;2.08;0.40;;;7.00;99.90;;;;;;4853707;29;20045;-72
2023/01/09 09:09:32;;;;;;;2.70;0.40;;;7.10;99.90;;;;;;4853541;29;20066;-72
2023/01/09 09:11:58;;;;;;;3.08;0.40;;;7.10;99.90;;;;;;4853873;29;20605;-72
2023/01/09 09:17:08;;;;;;;3.47;0.40;;;7.30;99.90;;;;;;4853598;29;20044;-73
2023/01/09 09:19:34;;;;;;;6.47;1.23;;;7.30;99.90;;;;;;4853721;29;20288;-74
2023/01/09 09:21:59;;;;;;;3.00;0.50;;;7.30;99.90;;;;;;4853306;29;20049;-73
2023/01/09 09:24:25;;;;;;;2.95;0.40;;;7.50;99.90;;;;;;4851906;29;20034;-72
2023/01/09 09:26:51;;;;;;;2.33;0.55;;;7.50;99.90;;;;;;4853554;29;20037;-72
2023/01/09 09:29:17;;;;;;;4.05;0.50;;;7.50;99.90;;;;;;4853837;29;20038;-71
2023/01/09 09:31:42;;;;;;;2.63;0.50;;;7.60;99.90;;;;;;4854026;29;20093;-72
2023/01/09 09:34:09;;;;;;;1.83;0.52;;;7.60;99.90;;;;;;4853804;29;20208;-74
2023/01/09 09:36:35;;;;;;;3.50;0.40;;;7.60;99.90;;;;;;4852058;29;20038;-74
2023/01/09 09:39:01;;;;;;;1.90;0.55;;;7.70;99.90;;;;;;4853688;29;20128;-73
2023/01/09 09:45:11;;;;;;;4.32;0.70;;;7.80;99.90;;;;;;4853153;29;20040;-72
2023/01/09 09:47:46;;;;;;;3.50;0.90;;;7.90;99.90;;;;;;4851769;29;20026;-77
2023/01/09 09:50:57;;;;;;;2.05;0.43;;;8.10;99.90;;;;;;4853357;29;20362;-75
2023/01/09 09:53:40;;;;;;;3.33;0.45;;;8.20;99.90;;;;;;4866709;29;20034;-73
2023/01/09 09:56:11;;;;;;;5.32;0.93;;;8.40;99.90;;;;;;4871526;29;20037;-71
2023/01/09 09:58:59;;;;;;;2.97;0.50;;;8.50;99.90;;;;;;4840614;29;20054;-75
2023/01/09 10:01:36;;;;;;;3.40;0.50;;;8.70;99.90;;;;;;4833533;29;20212;-74
2023/01/09 10:04:09;;;;;;;3.70;0.32;;;8.70;99.90;;;;;;4837141;29;20034;-73
2023/01/09 10:06:41;;;;;;;1.23;0.30;;;8.70;99.90;;;;;;4852440;29;20335;-74
2023/01/09 10:09:27;;;;;;;3.47;0.40;;;8.80;99.90;;;;;;4852742;29;20253;-72
2023/01/09 10:12:02;;;;;;;1.67;0.45;;;9.00;99.90;;;;;;4852394;29;20022;-74
2023/01/09 10:14:29;;;;;;;2.83;0.30;;;9.10;99.90;;;;;;4852320;29;20060;-74
2023/01/09 10:17:18;;;;;;;2.63;0.45;;;9.20;99.90;;;;;;4852744;29;20207;-72
2023/01/09 10:20:08;;;;;;;3.40;0.57;;;9.30;99.90;;;;;;4846905;29;20061;-72
2023/01/09 10:22:46;;;;;;;2.92;0.60;;;9.30;99.90;;;;;;4852465;29;20032;-71
2023/01/09 10:25:11;;;;;;;4.15;0.60;;;9.40;99.90;;;;;;4852868;29;20065;-70
2023/01/09 10:27:59;;;;;;;4.15;0.65;;;9.50;99.90;;;;;;4852066;29;20284;-73
2023/01/09 10:30:38;;;;;;;3.95;0.47;;;9.70;99.90;;;;;;4852766;29;20034;-71
2023/01/09 10:33:20;;;;;;;3.17;0.55;;;9.60;99.90;;;;;;4852737;29;20042;-72
2023/01/09 10:36:09;;;;;;;3.33;0.40;;;9.40;99.90;;;;;;4852375;29;20045;-72
2023/01/09 10:38:40;;;;;;;3.10;0.38;;;9.20;99.90;;;;;;4852174;29;20319;-72
2023/01/09 10:41:13;;;;;;;4.70;0.63;;;9.30;99.90;;;;;;4852665;29;20042;-72
2023/01/09 10:43:47;;;;;;;3.15;0.60;;;9.30;99.90;;;;;;4851448;29;20038;-73
2023/01/09 10:46:23;;;;;;;1.52;0.32;;;9.20;99.90;;;;;;4851139;29;20256;-73
2023/01/09 10:48:55;;;;;;;3.80;0.57;;;9.30;99.90;;;;;;4852250;29;20034;-74
2023/01/09 10:51:26;;;;;;;4.18;0.50;;;9.30;99.90;;;;;;4851753;29;20038;-71
2023/01/09 10:53:54;;;;;;;2.92;0.47;;;9.20;99.90;;;;;;4833802;29;20304;-72
2023/01/09 10:56:38;;;;;;;2.45;0.50;;;9.20;99.90;;;;;;4833041;29;20046;-73
2023/01/09 10:59:04;;;;;;;3.90;0.50;;;9.20;99.90;;;;;;4833301;29;20042;-75
2023/01/09 11:01:38;;;;;;;4.45;0.50;;;9.00;99.90;;;;;;4846741;29;20041;-73
2023/01/09 11:04:19;;;;;;;3.38;0.50;;;8.90;99.90;;;;;;4836030;29;20042;-73
2023/01/09 11:06:48;;;;;;;5.13;0.60;;;9.00;99.90;;;;;;4851470;29;20200;-72
2023/01/09 11:09:15;;;;;;;4.93;0.60;;;9.00;99.90;;;;;;4851612;29;20041;-73
2023/01/09 11:11:41;;;;;;;5.03;0.60;;;9.10;99.90;;;;;;4850786;29;20157;-72
2023/01/09 11:14:26;;;;;;;1.90;0.50;;;9.40;99.90;;;;;;4850732;29;20126;-72
2023/01/09 11:17:02;;;;;;;3.92;0.50;;;9.40;99.90;;;;;;4851517;29;20340;-75
2023/01/09 11:19:31;;;;;;;2.45;0.43;;;9.40;99.90;;;;;;4850961;29;20046;-73
2023/01/09 11:22:13;;;;;;;2.97;0.50;;;9.50;99.90;;;;;;4851198;29;20037;-73
2023/01/09 11:24:39;;;;;;;3.83;0.65;;;9.30;99.90;;;;;;4850447;29;20336;-72
2023/01/09 11:27:22;;;;;;;6.20;0.60;;;9.40;99.90;;;;;;4851250;29;20049;-72
2023/01/09 11:30:25;;;;;;;6.60;1.20;;;9.30;99.90;;;;;;4851199;29;20037;-74
2023/01/09 11:32:51;;;;;;;3.80;0.50;;;9.80;99.90;;;;;;4850894;29;20048;-73
2023/01/09 11:35:32;;;;;;;2.95;0.55;;;10.40;99.90;;;;;;4851315;29;20097;-73
2023/01/09 11:38:04;;;;;;;4.68;0.98;;;11.00;99.90;;;;;;4850903;29;20383;-73
2023/01/09 11:40:36;;;;;;;4.40;1.02;;;11.50;99.90;;;;;;4850463;29;20231;-72
2023/01/09 11:43:15;;;;;;;4.07;0.52;;;11.90;99.30;;;;;;4851356;29;20033;-79
2023/01/09 11:45:45;;;;;;;3.97;0.70;;;12.20;98.60;;;;;;4850288;29;20050;-71
2023/01/09 11:48:27;;;;;;;4.55;0.90;;;12.00;98.50;;;;;;4851206;29;20034;-75
2023/01/09 11:50:56;;;;;;;4.18;0.60;;;11.50;98.60;;;;;;4851255;29;20097;-71
2023/01/09 11:53:22;;;;;;;2.50;0.75;;;11.90;98.00;;;;;;4850897;29;20030;-78
2023/01/09 11:56:02;;;;;;;4.63;0.50;;;12.50;97.20;;;;;;4850991;29;20042;-71
2023/01/09 11:58:33;;;;;;;2.70;0.60;;;12.90;96.10;;;;;;4849344;29;20304;-80
2023/01/09 12:01:24;;;;;;;4.00;0.50;;;12.30;96.10;;;;;;4850596;29;20053;-71
2023/01/09 12:04:27;;;;;;;5.43;0.43;;;11.80;96.90;;;;;;4864878;29;20041;-74
2023/01/09 12:07:06;;;;;;;5.15;0.88;;;11.30;97.80;;;;;;4849666;29;20033;-71
2023/01/09 12:09:53;;;;;;;3.85;1.20;;;10.80;98.50;;;;;;4850569;29;20335;-71
2023/01/09 12:12:40;;;;;;;4.95;0.98;;;10.70;98.40;;;;;;4853676;29;20048;-76
2023/01/09 12:15:24;;;;;;;5.10;1.20;;;10.70;98.70;;;;;;4854589;29;20050;-77
2023/01/09 12:18:01;;;;;;;4.47;0.70;;;10.90;98.40;;;;;;4854290;29;20169;-72
2023/01/09 12:20:49;;;;;;;5.68;0.70;;;10.90;98.20;;;;;;4854506;29;20085;-71
2023/01/09 12:23:37;;;;;;;2.65;0.50;;;11.10;98.40;;;;;;4854556;29;20045;-74
2023/01/09 12:26:32;;;;;;;4.32;0.70;;;11.00;98.10;;;;;;4853472;29;20062;-73
2023/01/09 12:29:23;;;;;;;3.55;0.60;;;11.00;98.20;;;;;;4854554;29;20115;-72
2023/01/09 12:31:58;;;;;;;3.65;1.05;;;11.10;98.30;;;;;;4852833;29;20375;-71
2023/01/09 12:34:33;;;;;;;4.88;0.57;;;11.20;98.20;;;;;;4853639;29;20049;-73
2023/01/09 12:37:28;;;;;;;4.65;0.57;;;11.20;98.70;;;;;;4854155;29;20109;-72
2023/01/09 12:40:32;;;;;;;2.25;0.43;;;11.10;99.10;;;;;;4854118;29;20082;-74
2023/01/09 12:43:24;;;;;;;3.85;0.60;;;10.90;99.10;;;;;;4852262;29;20354;-71
2023/01/09 12:45:57;;;;;;;5.57;0.73;;;10.50;99.90;;;;;;4839309;29;20045;-72
2023/01/09 12:48:41;;;;;;;4.50;0.60;;;10.30;99.90;;;;;;4853740;29;20043;-71
2023/01/09 12:51:38;;;;;;;2.85;0.50;;;10.20;99.90;;;;;;4854074;29;20037;-73
2023/01/09 12:54:29;;;;;;;8.05;0.68;;;10.00;99.90;;;;;;4835693;29;20041;-80
2023/01/09 12:57:00;;;;;;;2.70;0.60;;;10.00;99.90;;;;;;4835349;29;20038;-72
2023/01/09 12:59:31;;;;;;;3.65;0.60;;;10.00;99.90;;;;;;4844382;29;20215;-71
2023/01/09 13:02:18;;;;;;;6.22;0.75;;;10.10;99.90;;;;;;4852136;29;20062;-72
2023/01/09 13:04:59;;;;;;;3.42;0.65;;;10.20;99.90;;;;;;4853023;29;20114;-73
2023/01/09 13:07:31;;;;;;;3.95;0.70;;;10.20;99.90;;;;;;4853561;29;20105;-72
2023/01/09 13:10:24;;;;;;;4.03;0.50;;;10.20;99.90;;;;;;4853453;29;20034;-71
2023/01/09 13:12:51;;;;;;;2.55;0.50;;;10.20;99.90;;;;;;4853475;29;20065;-72
2023/01/09 13:15:34;;;;;;;2.85;1.00;;;10.10;99.90;;;;;;4852274;29;20109;-74
2023/01/09 13:18:12;;;;;;;4.65;1.27;;;10.30;99.90;;;;;;4853321;29;20109;-74
2023/01/09 13:20:44;;;;;;;2.38;0.57;;;10.50;99.90;;;;;;4852914;29;20033;-72
2023/01/09 13:23:29;;;;;;;3.53;0.75;;;10.50;99.90;;;;;;4852311;29;20037;-73
2023/01/09 13:25:59;;;;;;;5.43;0.73;;;10.20;99.90;;;;;;4852900;29;20101;-73
2023/01/09 13:28:34;;;;;;;2.53;0.50;;;10.20;99.90;;;;;;4852845;29;20101;-72
2023/01/09 13:31:28;;;;;;;3.25;0.50;;;10.00;99.90;;;;;;4853025;29;20226;-71
2023/01/09 13:33:57;;;;;;;2.90;0.50;;;9.80;99.90;;;;;;4853302;29;20037;-71
2023/01/09 13:36:27;;;;;;;3.72;0.60;;;9.70;99.90;;;;;;4852941;29;20122;-71
2023/01/09 13:38:55;;;;;;;3.33;0.40;;;9.50;99.90;;;;;;4853238;29;20064;-73
2023/01/09 13:44:27;;;;;;;3.30;0.50;;;9.70;99.90;;;;;;4850993;29;20080;-74
2023/01/09 13:46:58;;;;;;;3.00;0.38;;;9.70;99.90;;;;;;4837061;29;20058;-73
2023/01/09 13:49:40;;;;;;;2.05;0.35;;;9.70;99.90;;;;;;4834547;29;20062;-74
2023/01/09 13:52:24;;;;;;;1.67;0.30;;;9.60;99.90;;;;;;4841045;29;20032;-74
2023/01/09 13:54:58;;;;;;;1.88;0.40;;;9.70;99.90;;;;;;4852160;29;20307;-73
2023/01/09 13:57:35;;;;;;;2.30;0.20;;;9.60;99.90;;;;;;4852857;29;20343;-76
2023/01/09 14:00:15;;;;;;;1.35;0.28;;;9.50;99.90;;;;;;4852815;29;20141;-72
2023/01/09 14:02:43;;;;;;;2.40;0.40;;;9.50;99.90;;;;;;4852008;29;20053;-72
2023/01/09 14:05:35;;;;;;;0.98;0.20;;;9.50;99.90;;;;;;4852434;29;20586;-72
2023/01/09 14:08:05;;;;;;;1.65;0.30;;;9.50;99.90;;;;;;4852283;29;20063;-74
2023/01/09 14:10:46;;;;;;;2.40;0.40;;;9.50;99.90;;;;;;4852324;29;20025;-73
2023/01/09 14:13:30;;;;;;;2.22;0.30;;;9.70;99.90;;;;;;4852371;29;20078;-71
2023/01/09 14:16:17;;;;;;;2.05;0.35;;;9.70;99.90;;;;;;4852193;29;20073;-71
2023/01/09 14:18:52;;;;;;;1.17;0.20;;;10.00;99.90;;;;;;4851659;29;20038;-70
2023/01/09 14:21:19;;;;;;;2.13;0.30;;;10.50;99.90;;;;;;4852392;29;20065;-70
2023/01/09 14:23:52;;;;;;;1.08;0.20;;;10.50;99.90;;;;;;4851926;29;20029;-72
2023/01/09 14:26:41;;;;;;;1.17;0.20;;;10.40;99.90;;;;;;4852258;29;20038;-72
2023/01/09 14:29:26;;;;;;;2.53;0.50;;;10.30;99.90;;;;;;4852458;29;20307;-73
2023/01/09 14:31:51;;;;;;;1.67;0.38;;;10.00;99.90;;;;;;4851185;29;20056;-72
2023/01/09 14:34:35;;;;;;;1.85;0.22;;;10.00;99.90;;;;;;4851785;29;20332;-73
2023/01/09 14:37:01;;;;;;;0.75;0.20;;;10.30;99.40;;;;;;4851722;29;20127;-72
2023/01/09 14:39:30;;;;;;;1.23;0.10;;;10.50;99.40;;;;;;4852188;29;20041;-74
2023/01/09 14:42:05;;;;;;;0.80;0.20;;;10.60;98.50;;;;;;4851827;29;20219;-73
2023/01/09 14:44:54;;;;;;;1.13;0.20;;;10.30;98.80;;;;;;4851508;29;20086;-73
2023/01/09 14:47:38;;;;;;;2.85;0.30;;;10.10;99.30;;;;;;4851827;29;20093;-72
2023/01/09 14:50:26;;;;;;;0.95;0.20;;;9.70;99.40;;;;;;4851554;29;20351;-73
2023/01/09 14:52:52;;;;;;;;;;;9.30;99.60;;;;;;4851841;29;20033;-72
2023/01/09 14:55:23;;;;;;;1.10;0.30;;;8.90;99.90;;;;;;4851451;29;19952;-72
2023/01/09 14:57:53;;;;;;;2.15;0.40;;;8.80;99.90;;;;;;4851156;29;20046;-73
2023/01/09 15:00:21;;;;;;;1.60;0.30;;;8.50;99.90;;;;;;4851674;29;20316;-72
2023/01/09 15:02:48;;;;;;;2.55;0.22;;;8.50;99.90;;;;;;4851195;29;20056;-72
2023/01/09 15:05:19;;;;;;;0.82;0.25;;;8.30;99.90;;;;;;4851500;29;20085;-71
2023/01/09 15:07:55;;;;;;;1.60;0.25;;;8.30;99.90;;;;;;4851307;29;20133;-72
2023/01/09 15:10:25;;;;;;;3.00;0.20;;;8.20;99.90;;;;;;4851435;29;20094;-72
2023/01/09 15:12:54;;;;;;;2.80;0.43;;;8.10;99.90;;;;;;4851089;29;20038;-73
2023/01/09 15:15:21;;;;;;;3.35;0.50;;;8.00;99.90;;;;;;4851186;29;20065;-74
2023/01/09 15:18:04;;;;;;;2.25;0.38;;;8.00;99.90;;;;;;4850807;29;20331;-72
2023/01/09 15:20:32;;;;;;;4.47;0.55;;;8.00;99.90;;;;;;4851248;29;20376;-72
2023/01/09 15:23:03;;;;;;;1.35;0.40;;;8.10;99.90;;;;;;4850174;29;20018;-73
2023/01/09 15:25:32;;;;;;;2.45;0.32;;;8.10;99.90;;;;;;4851031;29;20234;-72
2023/01/09 15:28:00;;;;;;;2.17;0.30;;;8.10;99.90;;;;;;4850979;29;20045;-72
2023/01/09 15:30:33;;;;;;;2.13;0.52;;;8.10;99.90;;;;;;4850299;29;20030;-73
2023/01/09 15:33:02;;;;;;;1.85;0.40;;;8.10;99.90;;;;;;4851006;29;20030;-74
2023/01/09 15:35:28;;;;;;;5.35;0.57;;;8.10;99.90;;;;;;4851100;29;20045;-73
2023/01/09 15:37:57;;;;;;;1.98;0.30;;;8.10;99.90;;;;;;4850575;29;20053;-71
2023/01/09 15:40:30;;;;;;;1.38;0.30;;;8.10;99.90;;;;;;4851143;29;20070;-72
2023/01/09 15:42:58;;;;;;;2.10;0.47;;;8.10;99.90;;;;;;4850626;29;20042;-73
2023/01/09 15:45:32;;;;;;;3.50;0.50;;;8.10;99.90;;;;;;4850657;29;20029;-73
2023/01/09 15:48:16;;;;;;;1.60;0.30;;;8.10;99.90;;;;;;4851123;29;20064;-73
2023/01/09 15:50:44;;;;;;;1.50;0.22;;;8.10;99.90;;;;;;4850359;29;20034;-73
2023/01/09 15:53:21;;;;;;;2.33;0.47;;;8.10;99.90;;;;;;4851072;29;20110;-72
2023/01/09 15:56:11;;;;;;;2.17;0.45;;;8.20;99.90;;;;;;4850684;29;20026;-73
2023/01/09 15:58:39;;;;;;;2.45;0.60;;;8.10;99.90;;;;;;4849351;29;20169;-73
2023/01/09 16:01:25;;;;;;;1.05;0.35;;;8.00;99.90;;;;;;4850827;29;20030;-71
2023/01/09 16:03:54;;;;;;;1.52;0.30;;;7.40;99.90;;;;;;4865404;29;20272;-74
2023/01/09 16:06:28;;;;;;;2.03;0.50;;;7.00;99.90;;;;;;4869159;29;20078;-73
2023/01/09 16:08:56;;;;;;;2.35;0.50;;;6.70;99.90;;;;;;4868645;29;20275;-72
2023/01/09 16:11:25;;;;;;;1.50;0.40;;;6.40;99.90;;;;;;4869188;29;20034;-72
2023/01/09 16:13:52;;;;;;;2.33;0.50;;;6.10;99.90;;;;;;4852689;29;20045;-73
2023/01/09 16:16:30;;;;;;;2.13;0.60;;;6.00;99.90;;;;;;4850646;29;20038;-71
2023/01/09 16:18:57;;;;;;;2.03;0.52;;;5.90;99.90;;;;;;4850268;29;20327;-73
2023/01/09 16:21:36;;;;;;;1.88;0.60;;;5.80;99.90;;;;;;4850804;29;20212;-73
2023/01/09 16:24:07;;;;;;;4.00;0.60;;;5.80;99.90;;;;;;4850822;29;20041;-71
2023/01/09 16:26:33;;;;;;;5.00;1.20;;;5.80;99.90;;;;;;4850846;29;20044;-72
2023/01/09 16:29:27;;;;;;;3.15;0.88;;;5.80;99.90;;;;;;4850060;29;20075;-72
2023/01/09 16:32:04;;;;;;;4.55;1.30;;;5.80;99.90;;;;;;4850298;29;20095;-72
2023/01/09 16:34:34;;;;;;;4.43;1.20;;;5.90;99.90;;;;;;4850875;29;20038;-75
2023/01/09 16:37:01;;;;;;;3.47;1.30;;;5.90;99.90;;;;;;4850401;29;20048;-71
2023/01/09 16:39:27;;;;;;;6.97;2.85;;;6.00;99.90;;;;;;4850722;29;20049;-73
2023/01/09 16:44:40;;;;;;;6.50;1.67;;;6.00;99.90;;;;;;4850161;29;20041;-74
2023/01/09 16:47:10;;;;;;;6.05;1.88;;;6.10;99.90;;;;;;4850827;29;20085;-73
2023/01/09 16:49:39;;;;;;;5.18;1.30;;;6.10;99.90;;;;;;4850422;29;20057;-73
2023/01/09 16:52:15;;;;;;;4.78;1.20;;;6.20;99.90;;;;;;4850322;29;20311;-75
2023/01/09 16:54:42;;;;;;;2.42;1.05;;;6.20;99.90;;;;;;4849867;29;20368;-73
2023/01/09 16:57:11;;;;;;;2.75;0.60;;;6.20;99.90;;;;;;4851587;29;20316;-73
2023/01/09 16:59:37;;;;;;;3.80;0.50;;;6.40;99.90;;;;;;4853425;29;20038;-74
2023/01/09 17:02:09;;;;;;;2.63;0.68;;;6.40;99.90;;;;;;4853699;29;20049;-73
2023/01/09 17:04:35;;;;;;;4.07;1.67;;;6.40;99.90;;;;;;4853900;29;20058;-73
2023/01/09 17:07:00;;;;;;;4.38;1.63;;;6.50;99.90;;;;;;4853223;29;20048;-74
2023/01/09 17:09:26;;;;;;;4.05;1.17;;;6.50;99.90;;;;;;4854043;29;20036;-71
2023/01/09 17:11:52;;;;;;;2.42;0.60;;;6.50;99.90;;;;;;4853734;29;20261;-75
2023/01/09 17:14:18;;;;;;;2.05;0.40;;;6.50;99.90;;;;;;4868517;29;20036;-78
2023/01/09 17:16:52;;;;;;;3.22;0.82;;;6.50;99.90;;;;;;4852133;29;20042;-76
2023/01/09 17:19:19;;;;;;;2.50;0.60;;;6.40;99.90;;;;;;4854368;29;20347;-75
2023/01/09 17:21:45;;;;;;;3.33;0.40;;;6.30;99.90;;;;;;4858502;29;20028;-74
2023/01/09 17:29:39;;;;;;;4.15;0.77;;;6.00;99.90;;;;;;4852974;29;20056;-75
2023/01/09 17:32:05;;;;;;;2.33;0.70;;;6.00;99.90;;;;;;4853641;29;20030;-78
2023/01/09 17:34:30;;;;;;;2.75;0.57;;;5.90;99.90;;;;;;4853098;29;20083;-72
2023/01/09 17:36:56;;;;;;;1.55;0.40;;;5.90;99.90;;;;;;4852904;29;20046;-70
2023/01/09 17:39:22;;;;;;;1.90;0.47;;;5.90;99.90;;;;;;4853366;29;20038;-73
2023/01/09 17:41:48;;;;;;;1.20;0.30;;;6.00;99.90;;;;;;4852913;29;20191;-72
2023/01/09 17:44:14;;;;;;;1.92;0.40;;;6.00;99.90;;;;;;4853336;29;20287;-73
2023/01/09 17:46:42;;;;;;;3.47;0.70;;;6.00;99.90;;;;;;4852756;29;20037;-73
2023/01/09 17:49:19;;;;;;;1.67;0.43;;;6.00;99.90;;;;;;4853249;29;20056;-76
2023/01/09 17:51:45;;;;;;;4.28;3.42;;;6.00;99.90;;;;;;4852273;29;20059;-72
2023/01/09 17:54:11;;;;;;;2.17;0.70;;;6.00;99.90;;;;;;4852614;29;20037;-73
2023/01/09 17:56:42;;;;;;;5.93;4.45;;;6.00;99.90;;;;;;4851666;29;20034;-72
2023/01/09 17:59:12;;;;;;;2.65;1.33;;;6.00;99.90;;;;;;4852675;29;20042;-74
2023/01/09 18:01:39;;;;;;;2.45;1.10;;;6.00;99.90;;;;;;4852905;29;20071;-70
2023/01/09 18:04:04;;;;;;;1.35;0.50;;;6.00;99.90;;;;;;4853980;29;20093;-74
2023/01/09 18:06:30;;;;;;;3.13;0.85;;;6.00;99.90;;;;;;4854243;29;20038;-72
2023/01/09 18:08:56;;;;;;;4.03;1.40;;;6.00;99.90;;;;;;4850740;29;20044;-72
2023/01/09 18:11:22;;;;;;;1.98;0.80;;;6.00;99.90;;;;;;4852470;29;20212;-71
2023/01/09 18:13:49;;;;;;;2.40;0.47;;;6.00;99.90;;;;;;4851850;29;20287;-71
2023/01/09 18:16:22;;;;;;;2.00;0.60;;;6.00;99.90;;;;;;4852533;29;20098;-72
2023/01/09 18:18:49;;;;;;;3.95;0.75;;;6.00;99.90;;;;;;4851589;29;20166;-72
2023/01/09 18:21:18;;;;;;;2.28;0.95;;;6.00;99.90;;;;;;4851904;29;20052;-72
2023/01/09 18:23:45;;;;;;;2.70;1.13;;;6.00;99.90;;;;;;4852377;29;20051;-71
2023/01/09 18:26:18;;;;;;;2.78;1.13;;;6.10;99.90;;;;;;4851997;29;20046;-70
2023/01/09 18:28:46;;;;;;;3.25;1.10;;;6.10;99.90;;;;;;4851870;29;20054;-70
2023/01/09 18:31:14;;;;;;;2.47;1.13;;;6.10;99.90;;;;;;4852200;29;20049;-71
2023/01/09 18:33:40;;;;;;;2.50;1.10;;;6.10;99.90;;;;;;4852200;29;20261;-71
2023/01/09 18:36:07;;;;;;;1.95;0.98;;;6.10;99.90;;;;;;4852025;29;20034;-70
2023/01/09 18:38:33;;;;;;;2.95;0.80;;;6.10;99.90;;;;;;4852332;29;20078;-73
2023/01/09 18:41:03;;;;;;;1.85;0.70;;;6.20;99.90;;;;;;4851770;29;20253;-70
2023/01/09 18:43:30;;;;;;;2.33;0.73;;;6.20;99.90;;;;;;4850982;29;20033;-70
2023/01/09 18:45:55;;;;;;;1.33;0.47;;;6.20;99.90;;;;;;4851367;29;20101;-70
2023/01/09 18:48:22;;;;;;;2.40;0.70;;;6.20;99.90;;;;;;4852077;29;20074;-72
2023/01/09 18:50:48;;;;;;;2.00;0.80;;;6.20;99.90;;;;;;4851382;29;20365;-70
2023/01/09 18:53:14;;;;;;;2.15;0.60;;;6.20;99.90;;;;;;4851724;29;20021;-71
2023/01/09 18:55:40;;;;;;;4.28;1.65;;;6.20;99.90;;;;;;4851808;29;20029;-71
2023/01/09 18:58:06;;;;;;;2.17;0.80;;;6.20;99.90;;;;;;4851364;29;20388;-70
2023/01/09 19:00:32;;;;;;;3.88;0.60;;;6.10;99.90;;;;;;4850692;29;20055;-72
2023/01/09 19:02:58;;;;;;;1.88;0.50;;;6.10;99.90;;;;;;4851077;29;20042;-70
2023/01/09 19:05:25;;;;;;;2.75;0.65;;;6.10;99.90;;;;;;4851694;29;20049;-71
2023/01/09 19:07:52;;;;;;;2.35;0.82;;;6.10;99.90;;;;;;4851502;29;20045;-70
2023/01/09 19:10:17;;;;;;;2.13;0.70;;;6.10;99.90;;;;;;4851381;29;20223;-72
2023/01/09 19:12:43;;;;;;;3.80;0.75;;;6.10;99.90;;;;;;4851340;29;20039;-71
2023/01/09 19:15:10;;;;;;;3.67;0.80;;;6.00;99.90;;;;;;4851745;29;20049;-71
2023/01/09 19:17:37;;;;;;;2.50;0.68;;;6.00;99.90;;;;;;4851782;29;20049;-71
2023/01/09 19:20:05;;;;;;;2.27;0.80;;;6.00;99.90;;;;;;4851650;29;20426;-71
2023/01/09 19:22:31;;;;;;;2.65;0.90;;;5.90;99.90;;;;;;4851629;29;20041;-71
2023/01/09 19:24:56;;;;;;;2.20;0.70;;;5.90;99.90;;;;;;4850995;29;20022;-70
2023/01/09 19:27:22;;;;;;;3.63;1.40;;;5.80;99.90;;;;;;4851385;29;20324;-71
2023/01/09 19:29:48;;;;;;;2.75;1.02;;;5.80;99.90;;;;;;4850775;29;20219;-70
2023/01/09 19:32:13;;;;;;;2.85;0.57;;;5.80;99.90;;;;;;4851318;29;20215;-71
2023/01/09 19:34:39;;;;;;;2.17;0.80;;;5.80;99.90;;;;;;4851464;29;20030;-70
2023/01/09 19:37:05;;;;;;;1.83;0.60;;;5.70;99.90;;;;;;4850667;29;20324;-71
2023/01/09 19:39:31;;;;;;;1.40;0.57;;;5.70;99.90;;;;;;4851469;29;20038;-71
2023/01/09 19:41:57;;;;;;;2.03;1.13;;;5.70;99.90;;;;;;4850851;29;20216;-71
2023/01/09 19:44:23;;;;;;;1.65;0.70;;;5.70;99.90;;;;;;4851094;29;20034;-71